Time;durP1;ratioP1;P1;durP2;ratioP2;P2;SDS_P1;SDS_P2;PMS_P1;PMS_P2;Temp;Humidity;BMP_temperature;BMP_pressure;BME280_temperature;BME280_humidity;BME280_pressure;Samples;Min_cycle;Max_cycle;Signal;HPM_P1;HPM_P2
2022/04/12 00:03:32;;;;;;;5.00;3.65;;;;;;;;;;12290394;29;20046;-83
2022/04/12 00:09:33;;;;;;;4.03;3.67;;;;;;;;;;12304206;29;20027;-83
2022/04/12 00:15:35;;;;;;;3.70;3.38;;;;;;;;;;12291147;29;20035;-82
2022/04/12 00:21:37;;;;;;;3.65;3.35;;;;;;;;;;12298389;28;20489;-83
2022/04/12 00:27:39;;;;;;;3.58;3.25;;;;;;;;;;12290550;29;20054;-83
2022/04/12 00:33:41;;;;;;;4.95;4.28;;;;;;;;;;12289796;28;20043;-83
2022/04/12 00:39:42;;;;;;;3.60;3.30;;;;;;;;;;12289674;29;20051;-83
2022/04/12 00:45:44;;;;;;;4.85;4.30;;;;;;;;;;12289698;29;20267;-83
2022/04/12 00:51:46;;;;;;;4.47;4.07;;;;;;;;;;12288904;29;20038;-83
2022/04/12 00:57:49;;;;;;;3.88;3.47;;;;;;;;;;12306174;29;20400;-83
2022/04/12 01:03:50;;;;;;;4.60;3.70;;;;;;;;;;12316004;29;20046;-83
2022/04/12 01:09:53;;;;;;;4.57;4.17;;;;;;;;;;12288843;29;20082;-83
2022/04/12 01:15:55;;;;;;;4.18;3.75;;;;;;;;;;12288426;29;20070;-83
2022/04/12 01:22:04;;;;;;;4.57;4.10;;;;;;;;;;12288186;29;20055;-83
2022/04/12 01:28:07;;;;;;;4.90;4.40;;;;;;;;;;12305128;29;20039;-83
2022/04/12 01:34:09;;;;;;;4.63;4.25;;;;;;;;;;12287551;29;20464;-83
2022/04/12 01:40:11;;;;;;;4.55;4.13;;;;;;;;;;12303568;29;20416;-83
2022/04/12 01:46:12;;;;;;;5.50;4.38;;;;;;;;;;12286120;29;20153;-83
2022/04/12 01:52:15;;;;;;;4.88;4.38;;;;;;;;;;12303501;29;20518;-83
2022/04/12 01:58:16;;;;;;;5.95;5.45;;;;;;;;;;12286128;29;20051;-83
2022/04/12 02:04:18;;;;;;;4.80;4.35;;;;;;;;;;12285999;29;20035;-79
2022/04/12 02:10:22;;;;;;;4.07;3.78;;;;;;;;;;12284755;29;20047;-79
2022/04/12 02:16:23;;;;;;;5.75;5.07;;;;;;;;;;12285347;29;20038;-79
2022/04/12 02:22:25;;;;;;;5.30;4.85;;;;;;;;;;12292448;28;20039;-78
2022/04/12 02:28:27;;;;;;;5.05;4.60;;;;;;;;;;12285016;29;20042;-78
2022/04/12 02:34:29;;;;;;;4.40;4.03;;;;;;;;;;12302792;29;20062;-79
2022/04/12 02:40:31;;;;;;;4.93;4.53;;;;;;;;;;12284380;29;20051;-83
2022/04/12 02:46:32;;;;;;;4.22;3.90;;;;;;;;;;12284670;29;20526;-83
2022/04/12 02:52:34;;;;;;;4.88;4.13;;;;;;;;;;12285376;29;20070;-82
2022/04/12 02:58:36;;;;;;;4.88;4.47;;;;;;;;;;12292386;29;20047;-81
2022/04/12 03:04:40;;;;;;;4.22;3.92;;;;;;;;;;12294813;29;20037;-82
2022/04/12 03:10:42;;;;;;;5.20;4.75;;;;;;;;;;12293702;29;20043;-83
2022/04/12 03:16:43;;;;;;;4.13;3.78;;;;;;;;;;12293487;29;20035;-83
2022/04/12 03:22:45;;;;;;;4.13;3.83;;;;;;;;;;12324693;28;20050;-82
2022/04/12 03:28:47;;;;;;;4.18;3.78;;;;;;;;;;12310122;29;20035;-82
2022/04/12 03:34:50;;;;;;;3.90;3.60;;;;;;;;;;12309655;29;20051;-82
2022/04/12 03:40:51;;;;;;;;;;;;;;;;;;12291797;29;20532;-83
2022/04/12 03:46:53;;;;;;;3.58;3.28;;;;;;;;;;12291408;29;19917;-82
2022/04/12 03:52:55;;;;;;;3.65;3.35;;;;;;;;;;12291198;29;20396;-82
2022/04/12 03:58:58;;;;;;;4.38;3.97;;;;;;;;;;12309283;29;20043;-78
2022/04/12 04:04:59;;;;;;;3.53;3.22;;;;;;;;;;12291959;29;20412;-79
2022/04/12 04:11:01;;;;;;;2.97;2.78;;;;;;;;;;12289126;29;20039;-79
2022/04/12 04:17:03;;;;;;;3.83;3.47;;;;;;;;;;12307052;29;20395;-79
2022/04/12 04:23:05;;;;;;;3.13;2.88;;;;;;;;;;12290131;29;20047;-79
2022/04/12 04:29:06;;;;;;;2.92;2.72;;;;;;;;;;12306698;29;20043;-79
2022/04/12 04:35:08;;;;;;;6.18;5.15;;;;;;;;;;12289670;29;20039;-79
2022/04/12 04:41:10;;;;;;;32.60;29.58;;;;;;;;;;12289279;29;20069;-79
2022/04/12 04:47:12;;;;;;;12.07;11.02;;;;;;;;;;12308905;28;20043;-78
2022/04/12 04:53:14;;;;;;;8.52;7.78;;;;;;;;;;12290426;29;20082;-77
2022/04/12 04:59:16;;;;;;;6.60;6.10;;;;;;;;;;12297282;29;20550;-78
2022/04/12 05:05:18;;;;;;;6.50;5.93;;;;;;;;;;12289309;29;20039;-78
2022/04/12 05:11:19;;;;;;;4.73;4.33;;;;;;;;;;12305047;29;20028;-78
2022/04/12 05:17:25;;;;;;;4.82;4.32;;;;;;;;;;12286835;28;20066;-79
2022/04/12 05:23:27;;;;;;;4.97;4.20;;;;;;;;;;12304207;28;20043;-79
2022/04/12 05:29:28;;;;;;;3.85;3.55;;;;;;;;;;12287312;29;20039;-78
2022/04/12 05:35:30;;;;;;;4.07;3.78;;;;;;;;;;12284438;29;20516;-78
2022/04/12 05:41:32;;;;;;;5.55;4.55;;;;;;;;;;12287841;29;20051;-79
2022/04/12 05:47:53;;;;;;;4.45;4.00;;;;;;;;;;12290221;29;20031;-76
2022/04/12 05:53:54;;;;;;;5.47;4.95;;;;;;;;;;12281988;29;20024;-78
2022/04/12 05:59:56;;;;;;;5.38;4.82;;;;;;;;;;12273873;28;20496;-77
2022/04/12 06:05:58;;;;;;;5.35;4.85;;;;;;;;;;12285273;28;20031;-76
2022/04/12 06:12:00;;;;;;;5.38;4.63;;;;;;;;;;12280513;28;20046;-80
2022/04/12 06:18:02;;;;;;;5.95;5.35;;;;;;;;;;12276463;29;20050;-78
2022/04/12 06:24:04;;;;;;;6.63;5.30;;;;;;;;;;12276438;29;20032;-76
2022/04/12 06:30:14;;;;;;;5.35;4.70;;;;;;;;;;12288683;28;20035;-76
2022/04/12 06:36:15;;;;;;;6.18;5.15;;;;;;;;;;12273229;29;20536;-74
2022/04/12 06:42:17;;;;;;;4.90;4.38;;;;;;;;;;12274480;28;20047;-74
2022/04/12 06:48:19;;;;;;;6.22;5.60;;;;;;;;;;12266026;29;20038;-75
2022/04/12 06:54:20;;;;;;;7.13;4.82;;;;;;;;;;12280878;29;20031;-76
2022/04/12 07:00:22;;;;;;;5.22;4.72;;;;;;;;;;12279531;28;20047;-75
2022/04/12 07:06:24;;;;;;;5.70;4.57;;;;;;;;;;12271777;28;20389;-76
2022/04/12 07:12:26;;;;;;;5.53;4.50;;;;;;;;;;12284263;29;20031;-76
2022/04/12 07:18:29;;;;;;;5.75;4.47;;;;;;;;;;12278078;28;20051;-78
2022/04/12 07:24:31;;;;;;;5.78;4.20;;;;;;;;;;12285208;28;20027;-76
2022/04/12 07:30:33;;;;;;;4.63;3.45;;;;;;;;;;12269550;28;20044;-79
2022/04/12 07:36:39;;;;;;;5.00;3.95;;;;;;;;;;12277502;29;20066;-79
2022/04/12 07:42:41;;;;;;;3.97;3.40;;;;;;;;;;12280860;28;20059;-79
2022/04/12 07:48:43;;;;;;;3.85;3.50;;;;;;;;;;12291273;28;20303;-77
2022/04/12 07:54:44;;;;;;;3.67;3.37;;;;;;;;;;12293417;28;20035;-78
2022/04/12 08:00:46;;;;;;;3.78;3.28;;;;;;;;;;12292114;29;20042;-78
2022/04/12 08:06:48;;;;;;;3.30;2.50;;;;;;;;;;12292346;28;20039;-76
2022/04/12 08:12:52;;;;;;;3.72;2.72;;;;;;;;;;12293036;28;20022;-76
2022/04/12 08:18:55;;;;;;;3.22;2.83;;;;;;;;;;12279082;29;20043;-76
2022/04/12 08:24:57;;;;;;;3.90;3.28;;;;;;;;;;12271746;29;20402;-77
2022/04/12 08:30:58;;;;;;;3.05;2.30;;;;;;;;;;12272925;29;20035;-78
2022/04/12 08:37:00;;;;;;;3.20;2.00;;;;;;;;;;12289370;28;20023;-79
2022/04/12 08:43:02;;;;;;;3.15;2.30;;;;;;;;;;12284289;28;20097;-78
2022/04/12 08:49:05;;;;;;;2.83;1.52;;;;;;;;;;12282996;29;20031;-77
2022/04/12 08:55:07;;;;;;;2.05;1.27;;;;;;;;;;12286309;28;20042;-77
2022/04/12 09:01:09;;;;;;;2.00;1.70;;;;;;;;;;12276406;29;20060;-79
2022/04/12 09:07:11;;;;;;;4.57;1.90;;;;;;;;;;12266124;29;20066;-79
2022/04/12 09:13:14;;;;;;;1.87;1.10;;;;;;;;;;12272962;29;20393;-80
2022/04/12 09:19:16;;;;;;;2.17;1.50;;;;;;;;;;12290319;28;20043;-79
2022/04/12 09:25:18;;;;;;;2.50;2.05;;;;;;;;;;12262409;29;20042;-78
2022/04/12 09:31:20;;;;;;;2.20;1.77;;;;;;;;;;12288681;28;20055;-77
2022/04/12 09:37:25;;;;;;;4.07;2.67;;;;;;;;;;12300924;28;20062;-77
2022/04/12 09:43:29;;;;;;;2.08;1.88;;;;;;;;;;12278198;29;20329;-76
2022/04/12 09:49:46;;;;;;;2.80;2.53;;;;;;;;;;12258616;29;20040;-77
2022/04/12 09:55:49;;;;;;;2.15;1.88;;;;;;;;;;12273975;28;20039;-78
2022/04/12 10:01:51;;;;;;;2.28;2.15;;;;;;;;;;12249446;29;20047;-77
2022/04/12 10:07:53;;;;;;;3.27;2.10;;;;;;;;;;12247090;29;20047;-76
2022/04/12 10:13:56;;;;;;;2.88;2.40;;;;;;;;;;12263515;29;20042;-77
2022/04/12 10:19:57;;;;;;;1.85;1.70;;;;;;;;;;12248521;28;20409;-78
2022/04/12 10:26:00;;;;;;;1.73;1.60;;;;;;;;;;12267268;28;20035;-77
2022/04/12 10:32:03;;;;;;;1.80;1.40;;;;;;;;;;12278954;29;20050;-77
2022/04/12 10:38:06;;;;;;;1.63;1.52;;;;;;;;;;12265340;29;20054;-78
2022/04/12 10:44:18;;;;;;;1.50;1.40;;;;;;;;;;12266316;29;20075;-78
2022/04/12 10:50:20;;;;;;;0.98;0.68;;;;;;;;;;12256106;29;20027;-78
2022/04/12 10:56:24;;;;;;;1.10;1.00;;;;;;;;;;12252120;29;20031;-78
2022/04/12 11:02:30;;;;;;;2.13;1.40;;;;;;;;;;12264394;28;20381;-77
2022/04/12 11:08:35;;;;;;;1.75;1.35;;;;;;;;;;12273474;29;20392;-77
2022/04/12 11:14:36;;;;;;;2.75;1.55;;;;;;;;;;12277558;28;20521;-77
2022/04/12 11:20:40;;;;;;;1.20;1.07;;;;;;;;;;12287714;29;20058;-77
2022/04/12 11:26:48;;;;;;;1.38;1.27;;;;;;;;;;12319871;29;20035;-76
2022/04/12 11:32:50;;;;;;;1.70;1.60;;;;;;;;;;12291924;29;20495;-77
2022/04/12 11:38:51;;;;;;;2.83;1.80;;;;;;;;;;12307849;29;20059;-77
2022/04/12 11:44:54;;;;;;;3.40;2.20;;;;;;;;;;12308025;29;20028;-77
2022/04/12 11:50:56;;;;;;;2.17;1.70;;;;;;;;;;12307871;29;20477;-76
2022/04/12 11:57:02;;;;;;;3.50;1.85;;;;;;;;;;12307981;29;20038;-76
2022/04/12 12:03:04;;;;;;;2.92;1.70;;;;;;;;;;12290099;28;20050;-76
2022/04/12 12:09:06;;;;;;;3.70;2.40;;;;;;;;;;12304038;29;20027;-78
2022/04/12 12:15:24;;;;;;;1.53;1.30;;;;;;;;;;12289687;29;20484;-79
2022/04/12 12:21:30;;;;;;;1.98;1.77;;;;;;;;;;12289591;29;20060;-76
2022/04/12 12:27:38;;;;;;;3.33;2.33;;;;;;;;;;12304903;28;20039;-76
2022/04/12 12:33:41;;;;;;;2.38;2.10;;;;;;;;;;12289244;29;20047;-77
2022/04/12 12:39:43;;;;;;;3.92;2.38;;;;;;;;;;12301401;29;20082;-76
2022/04/12 12:45:46;;;;;;;2.30;1.40;;;;;;;;;;12288366;29;20035;-76
2022/04/12 12:51:49;;;;;;;3.28;2.10;;;;;;;;;;12288436;29;20032;-76
2022/04/12 12:57:52;;;;;;;1.27;1.17;;;;;;;;;;12310721;29;20417;-76
2022/04/12 13:03:55;;;;;;;1.67;0.93;;;;;;;;;;12304743;29;20035;-76
2022/04/12 13:10:05;;;;;;;1.02;0.93;;;;;;;;;;12296473;28;20030;-77
2022/04/12 13:16:07;;;;;;;1.42;1.30;;;;;;;;;;12317935;28;20046;-77
2022/04/12 13:22:12;;;;;;;1.73;1.63;;;;;;;;;;12303865;29;20043;-76
2022/04/12 13:28:14;;;;;;;1.70;1.48;;;;;;;;;;12286798;29;20046;-77
2022/04/12 13:34:16;;;;;;;1.50;1.40;;;;;;;;;;12303340;29;20035;-76
2022/04/12 13:40:18;;;;;;;2.17;0.90;;;;;;;;;;12285970;28;20422;-77
2022/04/12 13:46:20;;;;;;;1.50;1.00;;;;;;;;;;12315932;28;20044;-76
2022/04/12 13:52:23;;;;;;;0.80;0.70;;;;;;;;;;12316417;28;20043;-78
2022/04/12 13:58:24;;;;;;;1.98;1.17;;;;;;;;;;12308667;28;20050;-76
2022/04/12 14:04:26;;;;;;;2.60;1.10;;;;;;;;;;12302289;29;20036;-76
2022/04/12 14:10:28;;;;;;;2.23;1.10;;;;;;;;;;12284902;29;20035;-77
2022/04/12 14:16:29;;;;;;;1.57;1.20;;;;;;;;;;12284442;29;20038;-76
2022/04/12 14:22:31;;;;;;;2.40;1.73;;;;;;;;;;12314559;29;20044;-76
2022/04/12 14:28:34;;;;;;;1.83;1.00;;;;;;;;;;12284193;29;20392;-76
2022/04/12 14:34:36;;;;;;;2.83;0.95;;;;;;;;;;12301104;29;20062;-76
2022/04/12 14:40:38;;;;;;;2.25;1.08;;;;;;;;;;12283665;29;20058;-76
2022/04/12 14:46:44;;;;;;;0.93;0.87;;;;;;;;;;12301021;29;20042;-76
2022/04/12 14:52:45;;;;;;;2.28;1.02;;;;;;;;;;12282843;29;20038;-76
2022/04/12 14:58:47;;;;;;;2.97;1.52;;;;;;;;;;12283207;29;20062;-76
2022/04/12 15:04:50;;;;;;;2.27;1.43;;;;;;;;;;12300387;29;20044;-76
2022/04/12 15:10:51;;;;;;;1.13;0.95;;;;;;;;;;12283464;29;20042;-76
2022/04/12 15:16:53;;;;;;;1.55;0.68;;;;;;;;;;12312785;28;20039;-76
2022/04/12 15:22:55;;;;;;;1.05;0.95;;;;;;;;;;12299844;29;20043;-76
2022/04/12 15:28:57;;;;;;;1.15;0.85;;;;;;;;;;12282464;29;20039;-79
2022/04/12 15:34:59;;;;;;;1.50;1.00;;;;;;;;;;12283011;29;20035;-80
2022/04/12 15:41:00;;;;;;;1.45;1.25;;;;;;;;;;12299928;29;20058;-79
2022/04/12 15:47:02;;;;;;;1.10;1.00;;;;;;;;;;12282263;29;20042;-79
2022/04/12 15:53:04;;;;;;;1.30;0.98;;;;;;;;;;12299311;29;20511;-79
2022/04/12 15:59:06;;;;;;;1.00;0.60;;;;;;;;;;12299272;29;20054;-79
2022/04/12 16:05:08;;;;;;;1.02;0.70;;;;;;;;;;12304704;28;20073;-78
2022/04/12 16:11:13;;;;;;;2.05;0.80;;;;;;;;;;12289988;29;20039;-79
2022/04/12 16:17:17;;;;;;;1.40;0.70;;;;;;;;;;12309362;29;20031;-80
2022/04/12 16:23:19;;;;;;;2.20;0.70;;;;;;;;;;12299255;29;20528;-79
2022/04/12 16:29:21;;;;;;;1.63;0.75;;;;;;;;;;12308171;29;20038;-78
2022/04/12 16:35:23;;;;;;;0.52;0.50;;;;;;;;;;12294991;29;20035;-80
2022/04/12 16:41:25;;;;;;;;;;;;;;;;;;12309342;29;20413;-79
2022/04/12 16:47:26;;;;;;;2.75;1.02;;;;;;;;;;12291814;29;20284;-79
2022/04/12 16:53:28;;;;;;;3.40;0.90;;;;;;;;;;12324464;28;20043;-80
2022/04/12 16:59:30;;;;;;;1.27;0.63;;;;;;;;;;12293422;29;20042;-79
2022/04/12 17:05:32;;;;;;;2.17;1.00;;;;;;;;;;12309209;29;20306;-80
2022/04/12 17:11:34;;;;;;;1.35;0.90;;;;;;;;;;12291325;29;20278;-78
2022/04/12 17:17:36;;;;;;;2.27;1.20;;;;;;;;;;12309662;28;20492;-78
2022/04/12 17:23:37;;;;;;;1.67;0.83;;;;;;;;;;12287156;29;20046;-78
2022/04/12 17:29:39;;;;;;;0.68;0.57;;;;;;;;;;12286391;29;20756;-75
2022/04/12 17:35:41;;;;;;;1.33;1.00;;;;;;;;;;12287503;29;20035;-79
2022/04/12 17:41:43;;;;;;;1.90;0.80;;;;;;;;;;12286025;29;20062;-81
2022/04/12 17:47:45;;;;;;;1.17;1.07;;;;;;;;;;12285272;29;20039;-81
2022/04/12 17:53:49;;;;;;;1.83;1.60;;;;;;;;;;12297954;28;20287;-83
2022/04/12 17:59:51;;;;;;;3.13;2.00;;;;;;;;;;12302237;29;20035;-83
2022/04/12 18:05:53;;;;;;;1.67;1.57;;;;;;;;;;12285557;29;20393;-83
2022/04/12 18:11:55;;;;;;;2.55;2.35;;;;;;;;;;12286681;29;20046;-82
2022/04/12 18:17:57;;;;;;;3.50;2.25;;;;;;;;;;12284674;29;20031;-82
2022/04/12 18:23:59;;;;;;;3.05;2.65;;;;;;;;;;12284577;29;20039;-82
2022/04/12 18:30:01;;;;;;;2.10;2.00;;;;;;;;;;12283158;29;20023;-83
2022/04/12 18:36:06;;;;;;;3.30;2.72;;;;;;;;;;12284684;29;20055;-83
2022/04/12 18:42:08;;;;;;;5.30;2.08;;;;;;;;;;12301608;29;20059;-83
2022/04/12 18:48:10;;;;;;;1.60;1.50;;;;;;;;;;12295565;28;20496;-84
2022/04/12 18:54:12;;;;;;;2.10;1.87;;;;;;;;;;12299977;29;20627;-83
2022/04/12 19:00:14;;;;;;;1.53;1.43;;;;;;;;;;12280870;29;20416;-83
2022/04/12 19:06:16;;;;;;;2.50;2.20;;;;;;;;;;12281726;29;20047;-82
2022/04/12 19:12:21;;;;;;;2.30;1.80;;;;;;;;;;12300645;29;20035;-83
2022/04/12 19:18:23;;;;;;;3.58;2.17;;;;;;;;;;12292675;28;20051;-83
2022/04/12 19:24:25;;;;;;;2.40;1.53;;;;;;;;;;12298192;29;20314;-79
2022/04/12 19:30:28;;;;;;;3.63;2.30;;;;;;;;;;12287974;29;20299;-78
2022/04/12 19:36:30;;;;;;;2.00;1.80;;;;;;;;;;12290052;28;20508;-79
2022/04/12 19:42:32;;;;;;;1.83;1.73;;;;;;;;;;12306165;29;20508;-79
2022/04/12 19:48:34;;;;;;;1.57;1.47;;;;;;;;;;12288806;29;20675;-79
2022/04/12 19:54:36;;;;;;;1.93;1.40;;;;;;;;;;12289276;29;20035;-79
2022/04/12 20:00:41;;;;;;;3.00;1.70;;;;;;;;;;12292151;29;20047;-79
2022/04/12 20:06:43;;;;;;;3.35;1.70;;;;;;;;;;12299597;29;20039;-79
2022/04/12 20:12:45;;;;;;;3.00;2.03;;;;;;;;;;12307372;29;20035;-79
2022/04/12 20:18:47;;;;;;;2.47;1.63;;;;;;;;;;12306980;29;20520;-79
2022/04/12 20:24:49;;;;;;;2.07;1.93;;;;;;;;;;12289596;29;20485;-79
2022/04/12 20:30:51;;;;;;;2.60;2.30;;;;;;;;;;12306334;29;20420;-79
2022/04/12 20:36:53;;;;;;;3.33;2.55;;;;;;;;;;12318426;28;20050;-79
2022/04/12 20:42:55;;;;;;;2.93;2.37;;;;;;;;;;12288674;29;20069;-79
2022/04/12 20:48:57;;;;;;;2.85;2.47;;;;;;;;;;12305168;28;20039;-79
2022/04/12 20:54:59;;;;;;;2.87;2.57;;;;;;;;;;12305871;29;20043;-79
2022/04/12 21:01:01;;;;;;;3.37;2.70;;;;;;;;;;12299562;29;20051;-79
2022/04/12 21:07:04;;;;;;;3.25;2.95;;;;;;;;;;12288862;29;20047;-78
2022/04/12 21:13:06;;;;;;;3.65;3.35;;;;;;;;;;12304782;29;20043;-78
2022/04/12 21:19:08;;;;;;;4.10;3.40;;;;;;;;;;12287763;29;20043;-78
2022/04/12 21:25:11;;;;;;;4.10;3.55;;;;;;;;;;12287491;29;20046;-78
2022/04/12 21:31:12;;;;;;;3.80;3.47;;;;;;;;;;12286813;29;20031;-78
2022/04/12 21:37:14;;;;;;;4.28;3.40;;;;;;;;;;12287354;29;20044;-78
2022/04/12 21:43:16;;;;;;;4.38;3.97;;;;;;;;;;12290512;29;20055;-78
2022/04/12 21:49:18;;;;;;;5.03;4.63;;;;;;;;;;12304241;29;20032;-78
2022/04/12 21:55:20;;;;;;;4.68;4.25;;;;;;;;;;12286738;29;20035;-78
2022/04/12 22:01:21;;;;;;;4.80;4.40;;;;;;;;;;12286565;28;20043;-78
2022/04/12 22:07:23;;;;;;;4.80;4.28;;;;;;;;;;12287016;29;20039;-78
2022/04/12 22:13:25;;;;;;;5.03;4.18;;;;;;;;;;12289988;29;20035;-77
2022/04/12 22:19:26;;;;;;;4.97;4.57;;;;;;;;;;12314633;28;20054;-78
2022/04/12 22:25:30;;;;;;;4.70;4.32;;;;;;;;;;12302642;29;20038;-78
2022/04/12 22:31:31;;;;;;;3.30;3.00;;;;;;;;;;12286050;29;20485;-78
2022/04/12 22:37:38;;;;;;;6.80;6.20;;;;;;;;;;12285433;29;20054;-78
2022/04/12 22:43:40;;;;;;;5.05;4.45;;;;;;;;;;12284830;29;20410;-78
2022/04/12 22:49:41;;;;;;;6.35;5.75;;;;;;;;;;12301570;29;20023;-78
2022/04/12 22:55:43;;;;;;;5.85;5.35;;;;;;;;;;12301307;29;20046;-79
2022/04/12 23:01:45;;;;;;;4.47;3.95;;;;;;;;;;12300969;29;20051;-79
2022/04/12 23:07:47;;;;;;;6.10;5.03;;;;;;;;;;12312887;28;20047;-78
2022/04/12 23:13:48;;;;;;;5.85;4.90;;;;;;;;;;12287697;28;20047;-79
2022/04/12 23:19:51;;;;;;;5.65;5.15;;;;;;;;;;12304685;29;20047;-79
2022/04/12 23:25:52;;;;;;;5.70;5.20;;;;;;;;;;12293096;29;20032;-79
2022/04/12 23:31:54;;;;;;;5.40;4.88;;;;;;;;;;12292673;29;20400;-79
2022/04/12 23:38:03;;;;;;;5.25;4.75;;;;;;;;;;12292756;29;20035;-79
2022/04/12 23:44:05;;;;;;;6.43;5.28;;;;;;;;;;12309025;29;20047;-78
2022/04/12 23:50:06;;;;;;;4.90;4.40;;;;;;;;;;12309299;29;20031;-78
2022/04/12 23:56:08;;;;;;;6.27;5.77;;;;;;;;;;12291813;29;20043;-78
